sensor_id;sensor_type;location;lat;lon;timestamp;pressure;altitude;pressure_sealevel;temperature;humidity
50702;BME280;36670;50.094;8.496;2023-09-19T00:00:07;99741.72;;;22.10;61.17
50702;BME280;36670;50.094;8.496;2023-09-19T00:02:33;99752.03;;;21.85;61.52
50702;BME280;36670;50.094;8.496;2023-09-19T00:04:58;99751.47;;;22.12;61.02
50702;BME280;36670;50.094;8.496;2023-09-19T00:07:23;99760.31;;;22.23;61.27
50702;BME280;36670;50.094;8.496;2023-09-19T00:09:49;99748.63;;;22.55;60.17
50702;BME280;36670;50.094;8.496;2023-09-19T00:12:14;99755.22;;;22.71;59.59
50702;BME280;36670;50.094;8.496;2023-09-19T00:14:40;99755.03;;;22.22;60.62
50702;BME280;36670;50.094;8.496;2023-09-19T00:17:05;99754.59;;;22.32;60.56
50702;BME280;36670;50.094;8.496;2023-09-19T00:19:35;99755.22;;;22.16;60.91
50702;BME280;36670;50.094;8.496;2023-09-19T00:22:01;99753.75;;;21.98;62.18
50702;BME280;36670;50.094;8.496;2023-09-19T00:24:26;99767.28;;;22.17;61.56
50702;BME280;36670;50.094;8.496;2023-09-19T00:26:53;99765.22;;;22.26;61.12
50702;BME280;36670;50.094;8.496;2023-09-19T00:29:19;99761.56;;;22.35;61.00
50702;BME280;36670;50.094;8.496;2023-09-19T00:31:45;99766.06;;;22.27;60.72
50702;BME280;36670;50.094;8.496;2023-09-19T00:34:10;99762.91;;;22.28;61.55
50702;BME280;36670;50.094;8.496;2023-09-19T00:36:39;99758.09;;;22.50;60.97
50702;BME280;36670;50.094;8.496;2023-09-19T00:39:05;99768.72;;;22.44;60.74
50702;BME280;36670;50.094;8.496;2023-09-19T00:41:34;99760.78;;;22.46;60.25
50702;BME280;36670;50.094;8.496;2023-09-19T00:44:03;99763.19;;;22.69;59.73
50702;BME280;36670;50.094;8.496;2023-09-19T00:46:30;99764.56;;;22.63;60.55
50702;BME280;36670;50.094;8.496;2023-09-19T00:48:56;99766.03;;;22.81;59.58
50702;BME280;36670;50.094;8.496;2023-09-19T00:51:22;99761.16;;;22.57;59.59
50702;BME280;36670;50.094;8.496;2023-09-19T00:53:48;99775.19;;;22.78;59.99
50702;BME280;36670;50.094;8.496;2023-09-19T00:56:14;99778.91;;;22.70;59.78
50702;BME280;36670;50.094;8.496;2023-09-19T00:58:43;99772.75;;;22.56;59.68
50702;BME280;36670;50.094;8.496;2023-09-19T01:01:09;99776.00;;;22.45;60.32
50702;BME280;36670;50.094;8.496;2023-09-19T01:03:36;99785.34;;;22.71;59.62
50702;BME280;36670;50.094;8.496;2023-09-19T01:06:02;99784.75;;;22.65;59.72
50702;BME280;36670;50.094;8.496;2023-09-19T01:08:27;99785.59;;;22.78;59.73
50702;BME280;36670;50.094;8.496;2023-09-19T01:11:20;99788.19;;;22.83;59.82
50702;BME280;36670;50.094;8.496;2023-09-19T01:22:11;99804.56;;;22.68;59.54
50702;BME280;36670;50.094;8.496;2023-09-19T01:25:05;99815.94;;;22.72;59.96
50702;BME280;36670;50.094;8.496;2023-09-19T01:30:20;99828.97;;;22.64;59.98
50702;BME280;36670;50.094;8.496;2023-09-19T01:32:52;99830.25;;;22.46;60.08
50702;BME280;36670;50.094;8.496;2023-09-19T01:35:18;99826.84;;;22.40;60.13
50702;BME280;36670;50.094;8.496;2023-09-19T01:37:44;99832.09;;;22.21;60.99
50702;BME280;36670;50.094;8.496;2023-09-19T01:40:12;99825.41;;;22.55;59.87
50702;BME280;36670;50.094;8.496;2023-09-19T01:47:52;99840.44;;;21.87;61.33
50702;BME280;36670;50.094;8.496;2023-09-19T01:50:29;99832.06;;;21.78;62.19
50702;BME280;36670;50.094;8.496;2023-09-19T01:53:07;99840.53;;;21.70;62.54
50702;BME280;36670;50.094;8.496;2023-09-19T01:55:37;99840.34;;;21.75;62.01
50702;BME280;36670;50.094;8.496;2023-09-19T01:58:14;99846.69;;;22.14;61.21
50702;BME280;36670;50.094;8.496;2023-09-19T02:00:42;99847.38;;;21.90;61.11
50702;BME280;36670;50.094;8.496;2023-09-19T02:03:10;99843.97;;;22.05;61.50
50702;BME280;36670;50.094;8.496;2023-09-19T02:05:37;99856.59;;;22.20;60.99
50702;BME280;36670;50.094;8.496;2023-09-19T02:08:03;99851.09;;;22.03;60.90
50702;BME280;36670;50.094;8.496;2023-09-19T02:10:28;99854.50;;;21.87;61.30
50702;BME280;36670;50.094;8.496;2023-09-19T02:12:54;99859.66;;;22.06;61.26
50702;BME280;36670;50.094;8.496;2023-09-19T02:15:19;99857.41;;;21.99;60.95
50702;BME280;36670;50.094;8.496;2023-09-19T02:17:45;99866.88;;;21.86;60.86
50702;BME280;36670;50.094;8.496;2023-09-19T02:20:12;99870.66;;;21.90;60.98
50702;BME280;36670;50.094;8.496;2023-09-19T02:22:42;99874.22;;;21.78;61.45
50702;BME280;36670;50.094;8.496;2023-09-19T02:25:09;99881.28;;;21.55;61.79
50702;BME280;36670;50.094;8.496;2023-09-19T02:27:34;99883.31;;;21.37;62.37
50702;BME280;36670;50.094;8.496;2023-09-19T02:29:59;99886.75;;;21.42;61.88
50702;BME280;36670;50.094;8.496;2023-09-19T02:32:29;99882.56;;;21.48;61.81
50702;BME280;36670;50.094;8.496;2023-09-19T02:34:55;99878.78;;;20.97;63.17
50702;BME280;36670;50.094;8.496;2023-09-19T02:37:21;99876.94;;;21.10;62.96
50702;BME280;36670;50.094;8.496;2023-09-19T02:39:47;99872.88;;;21.37;62.47
50702;BME280;36670;50.094;8.496;2023-09-19T02:42:12;99874.84;;;21.45;61.96
50702;BME280;36670;50.094;8.496;2023-09-19T02:44:37;99883.09;;;21.42;61.55
50702;BME280;36670;50.094;8.496;2023-09-19T02:47:03;99877.97;;;21.53;61.41
50702;BME280;36670;50.094;8.496;2023-09-19T02:49:29;99880.59;;;21.88;60.85
50702;BME280;36670;50.094;8.496;2023-09-19T02:51:54;99880.53;;;21.75;60.59
50702;BME280;36670;50.094;8.496;2023-09-19T02:54:19;99880.72;;;21.70;60.88
50702;BME280;36670;50.094;8.496;2023-09-19T02:56:45;99876.00;;;21.53;61.08
50702;BME280;36670;50.094;8.496;2023-09-19T02:59:10;99882.78;;;21.52;61.13
50702;BME280;36670;50.094;8.496;2023-09-19T03:01:36;99879.78;;;21.57;60.86
50702;BME280;36670;50.094;8.496;2023-09-19T03:04:03;99885.19;;;21.71;61.02
50702;BME280;36670;50.094;8.496;2023-09-19T03:06:31;99889.72;;;21.85;60.09
50702;BME280;36670;50.094;8.496;2023-09-19T03:08:57;99883.03;;;21.98;60.10
50702;BME280;36670;50.094;8.496;2023-09-19T03:11:25;99881.34;;;21.76;59.98
50702;BME280;36670;50.094;8.496;2023-09-19T03:13:52;99880.53;;;21.67;60.26
50702;BME280;36670;50.094;8.496;2023-09-19T03:16:17;99885.94;;;21.33;61.11
50702;BME280;36670;50.094;8.496;2023-09-19T03:18:44;99893.81;;;21.48;60.74
50702;BME280;36670;50.094;8.496;2023-09-19T03:21:10;99887.03;;;21.58;60.11
50702;BME280;36670;50.094;8.496;2023-09-19T03:23:35;99909.16;;;21.60;60.16
50702;BME280;36670;50.094;8.496;2023-09-19T03:26:01;99895.13;;;21.51;60.41
50702;BME280;36670;50.094;8.496;2023-09-19T03:28:26;99903.28;;;21.26;60.81
50702;BME280;36670;50.094;8.496;2023-09-19T03:31:03;99905.16;;;21.13;61.29
50702;BME280;36670;50.094;8.496;2023-09-19T03:33:28;99904.97;;;21.27;60.64
50702;BME280;36670;50.094;8.496;2023-09-19T03:35:56;99902.25;;;21.48;59.86
50702;BME280;36670;50.094;8.496;2023-09-19T03:38:23;99902.78;;;21.33;60.63
50702;BME280;36670;50.094;8.496;2023-09-19T03:40:48;99906.56;;;21.37;60.51
50702;BME280;36670;50.094;8.496;2023-09-19T03:43:14;99907.28;;;21.17;60.48
50702;BME280;36670;50.094;8.496;2023-09-19T03:45:39;99898.31;;;21.32;60.69
50702;BME280;36670;50.094;8.496;2023-09-19T03:48:11;99904.19;;;21.01;61.15
50702;BME280;36670;50.094;8.496;2023-09-19T03:50:37;99903.03;;;21.10;60.87
50702;BME280;36670;50.094;8.496;2023-09-19T03:53:02;99909.31;;;21.07;61.13
50702;BME280;36670;50.094;8.496;2023-09-19T03:55:28;99906.50;;;21.07;61.09
50702;BME280;36670;50.094;8.496;2023-09-19T03:57:55;99902.72;;;20.94;61.66
50702;BME280;36670;50.094;8.496;2023-09-19T04:00:21;99910.63;;;21.10;61.70
50702;BME280;36670;50.094;8.496;2023-09-19T04:02:48;99910.28;;;21.11;61.44
50702;BME280;36670;50.094;8.496;2023-09-19T04:05:14;99906.94;;;21.27;60.95
50702;BME280;36670;50.094;8.496;2023-09-19T04:07:39;99910.22;;;21.29;61.02
50702;BME280;36670;50.094;8.496;2023-09-19T04:10:05;99909.31;;;20.90;61.93
50702;BME280;36670;50.094;8.496;2023-09-19T04:12:33;99917.56;;;21.04;61.67
50702;BME280;36670;50.094;8.496;2023-09-19T04:14:59;99924.78;;;21.22;61.27
50702;BME280;36670;50.094;8.496;2023-09-19T04:17:24;99934.63;;;21.46;60.66
50702;BME280;36670;50.094;8.496;2023-09-19T04:19:49;99934.34;;;21.30;60.63
50702;BME280;36670;50.094;8.496;2023-09-19T04:22:15;99927.47;;;21.10;61.11
50702;BME280;36670;50.094;8.496;2023-09-19T04:24:40;99934.91;;;20.88;61.21
50702;BME280;36670;50.094;8.496;2023-09-19T04:27:05;99938.88;;;20.87;61.24
50702;BME280;36670;50.094;8.496;2023-09-19T04:29:32;99942.69;;;20.74;60.97
50702;BME280;36670;50.094;8.496;2023-09-19T04:31:57;99933.44;;;20.91;60.90
50702;BME280;36670;50.094;8.496;2023-09-19T04:34:23;99948.75;;;20.85;60.88
50702;BME280;36670;50.094;8.496;2023-09-19T04:36:49;99958.00;;;20.94;60.70
50702;BME280;36670;50.094;8.496;2023-09-19T04:39:14;99942.16;;;21.07;60.11
50702;BME280;36670;50.094;8.496;2023-09-19T04:41:40;99944.47;;;20.87;60.92
50702;BME280;36670;50.094;8.496;2023-09-19T04:44:06;99942.69;;;20.74;60.75
50702;BME280;36670;50.094;8.496;2023-09-19T04:46:32;99938.53;;;20.89;60.23
50702;BME280;36670;50.094;8.496;2023-09-19T04:48:57;99945.78;;;20.72;60.77
50702;BME280;36670;50.094;8.496;2023-09-19T04:51:23;99950.56;;;20.63;60.61
50702;BME280;36670;50.094;8.496;2023-09-19T04:53:48;99948.78;;;20.93;60.51
50702;BME280;36670;50.094;8.496;2023-09-19T04:56:14;99959.03;;;20.89;59.71
50702;BME280;36670;50.094;8.496;2023-09-19T04:58:40;99959.81;;;20.98;60.14
50702;BME280;36670;50.094;8.496;2023-09-19T05:01:05;99960.50;;;20.78;59.95
50702;BME280;36670;50.094;8.496;2023-09-19T05:03:30;99963.78;;;20.89;59.21
50702;BME280;36670;50.094;8.496;2023-09-19T05:05:56;99974.00;;;20.85;60.09
50702;BME280;36670;50.094;8.496;2023-09-19T05:08:21;99973.69;;;21.04;59.58
50702;BME280;36670;50.094;8.496;2023-09-19T05:10:47;99966.09;;;20.95;59.83
50702;BME280;36670;50.094;8.496;2023-09-19T05:13:13;99972.03;;;21.11;59.21
50702;BME280;36670;50.094;8.496;2023-09-19T05:15:39;99966.28;;;20.99;59.09
50702;BME280;36670;50.094;8.496;2023-09-19T05:18:04;99966.56;;;20.62;60.22
50702;BME280;36670;50.094;8.496;2023-09-19T05:20:31;99973.88;;;20.81;60.27
50702;BME280;36670;50.094;8.496;2023-09-19T05:23:02;99978.63;;;20.72;60.43
50702;BME280;36670;50.094;8.496;2023-09-19T05:25:31;99978.09;;;20.61;60.33
50702;BME280;36670;50.094;8.496;2023-09-19T05:27:58;99982.78;;;20.74;59.97
50702;BME280;36670;50.094;8.496;2023-09-19T05:30:26;99984.59;;;20.79;59.87
50702;BME280;36670;50.094;8.496;2023-09-19T05:32:55;99986.25;;;20.80;59.77
50702;BME280;36670;50.094;8.496;2023-09-19T05:35:21;99993.44;;;20.63;60.32
50702;BME280;36670;50.094;8.496;2023-09-19T05:37:52;99989.88;;;20.72;60.04
50702;BME280;36670;50.094;8.496;2023-09-19T05:40:18;99996.09;;;20.60;59.58
50702;BME280;36670;50.094;8.496;2023-09-19T05:42:44;99997.72;;;20.52;60.10
50702;BME280;36670;50.094;8.496;2023-09-19T05:45:10;99995.31;;;20.77;59.87
50702;BME280;36670;50.094;8.496;2023-09-19T05:47:37;100003.00;;;20.62;59.75
50702;BME280;36670;50.094;8.496;2023-09-19T05:50:03;100005.88;;;20.71;60.25
50702;BME280;36670;50.094;8.496;2023-09-19T05:52:28;100002.59;;;20.78;60.23
50702;BME280;36670;50.094;8.496;2023-09-19T05:54:54;100013.31;;;20.76;59.78
50702;BME280;36670;50.094;8.496;2023-09-19T05:57:19;100012.47;;;20.84;60.01
50702;BME280;36670;50.094;8.496;2023-09-19T05:59:45;100011.16;;;20.82;59.68
50702;BME280;36670;50.094;8.496;2023-09-19T06:02:10;100024.53;;;20.76;60.09
50702;BME280;36670;50.094;8.496;2023-09-19T06:04:37;100017.03;;;20.62;59.75
50702;BME280;36670;50.094;8.496;2023-09-19T06:07:06;100019.09;;;20.97;60.17
50702;BME280;36670;50.094;8.496;2023-09-19T06:09:31;100013.66;;;21.01;59.11
50702;BME280;36670;50.094;8.496;2023-09-19T06:11:57;100019.94;;;20.97;59.73
50702;BME280;36670;50.094;8.496;2023-09-19T06:14:22;100017.09;;;21.15;59.34
50702;BME280;36670;50.094;8.496;2023-09-19T06:16:49;100024.72;;;21.14;59.39
50702;BME280;36670;50.094;8.496;2023-09-19T06:19:14;100025.50;;;20.89;59.45
50702;BME280;36670;50.094;8.496;2023-09-19T06:21:40;100034.28;;;20.87;59.55
50702;BME280;36670;50.094;8.496;2023-09-19T06:24:05;100029.50;;;20.96;59.55
50702;BME280;36670;50.094;8.496;2023-09-19T06:26:31;100038.75;;;21.06;59.17
50702;BME280;36670;50.094;8.496;2023-09-19T06:28:57;100048.00;;;21.33;58.67
50702;BME280;36670;50.094;8.496;2023-09-19T06:31:22;100042.19;;;21.55;58.75
50702;BME280;36670;50.094;8.496;2023-09-19T06:33:51;100050.94;;;21.62;58.34
50702;BME280;36670;50.094;8.496;2023-09-19T06:36:17;100048.81;;;21.59;58.10
50702;BME280;36670;50.094;8.496;2023-09-19T06:38:42;100046.94;;;21.81;58.52
50702;BME280;36670;50.094;8.496;2023-09-19T06:41:08;100054.22;;;22.21;57.71
50702;BME280;36670;50.094;8.496;2023-09-19T06:43:34;100052.09;;;22.17;57.27
50702;BME280;36670;50.094;8.496;2023-09-19T06:46:00;100054.81;;;22.44;56.67
50702;BME280;36670;50.094;8.496;2023-09-19T06:48:27;100051.50;;;22.50;56.85
50702;BME280;36670;50.094;8.496;2023-09-19T06:50:58;100060.22;;;22.49;56.51
50702;BME280;36670;50.094;8.496;2023-09-19T06:53:26;100053.78;;;22.78;56.33
50702;BME280;36670;50.094;8.496;2023-09-19T06:55:52;100053.78;;;22.78;55.53
50702;BME280;36670;50.094;8.496;2023-09-19T06:58:17;100059.06;;;22.11;56.11
50702;BME280;36670;50.094;8.496;2023-09-19T07:00:42;100069.66;;;22.14;56.94
50702;BME280;36670;50.094;8.496;2023-09-19T07:03:08;100076.34;;;22.31;57.02
50702;BME280;36670;50.094;8.496;2023-09-19T07:05:37;100077.28;;;22.53;56.33
50702;BME280;36670;50.094;8.496;2023-09-19T07:08:03;100076.97;;;22.75;55.95
50702;BME280;36670;50.094;8.496;2023-09-19T07:10:29;100092.00;;;22.79;56.05
50702;BME280;36670;50.094;8.496;2023-09-19T07:13:03;100085.69;;;22.82;55.82
50702;BME280;36670;50.094;8.496;2023-09-19T07:15:32;100093.03;;;22.45;56.39
50702;BME280;36670;50.094;8.496;2023-09-19T07:17:58;100094.53;;;22.42;56.33
50702;BME280;36670;50.094;8.496;2023-09-19T07:20:25;100097.69;;;22.32;55.79
50702;BME280;36670;50.094;8.496;2023-09-19T07:22:52;100109.53;;;22.55;55.59
50702;BME280;36670;50.094;8.496;2023-09-19T07:25:17;100109.94;;;22.36;55.69
50702;BME280;36670;50.094;8.496;2023-09-19T07:27:43;100114.44;;;22.28;56.18
50702;BME280;36670;50.094;8.496;2023-09-19T07:30:09;100122.72;;;22.16;56.57
50702;BME280;36670;50.094;8.496;2023-09-19T07:32:35;100128.00;;;22.17;56.43
50702;BME280;36670;50.094;8.496;2023-09-19T07:35:05;100126.47;;;22.38;55.54
50702;BME280;36670;50.094;8.496;2023-09-19T07:37:33;100130.13;;;22.29;55.72
50702;BME280;36670;50.094;8.496;2023-09-19T07:39:59;100138.78;;;22.63;55.06
50702;BME280;36670;50.094;8.496;2023-09-19T07:42:26;100137.66;;;22.55;55.28
50702;BME280;36670;50.094;8.496;2023-09-19T07:44:52;100139.22;;;22.35;55.26
50702;BME280;36670;50.094;8.496;2023-09-19T07:47:19;100140.16;;;22.87;54.96
50702;BME280;36670;50.094;8.496;2023-09-19T07:49:46;100143.63;;;22.92;54.40
50702;BME280;36670;50.094;8.496;2023-09-19T07:52:12;100147.59;;;22.91;54.55
50702;BME280;36670;50.094;8.496;2023-09-19T07:54:38;100150.28;;;23.09;54.18
50702;BME280;36670;50.094;8.496;2023-09-19T07:57:04;100154.13;;;23.04;53.81
50702;BME280;36670;50.094;8.496;2023-09-19T07:59:29;100150.75;;;22.90;53.18
50702;BME280;36670;50.094;8.496;2023-09-19T08:01:54;100149.44;;;23.17;52.98
50702;BME280;36670;50.094;8.496;2023-09-19T08:04:20;100156.53;;;23.23;53.63
50702;BME280;36670;50.094;8.496;2023-09-19T08:06:45;100149.31;;;23.34;52.98
50702;BME280;36670;50.094;8.496;2023-09-19T08:09:11;100150.72;;;23.62;52.32
50702;BME280;36670;50.094;8.496;2023-09-19T08:11:37;100156.03;;;23.42;52.08
50702;BME280;36670;50.094;8.496;2023-09-19T08:14:04;100154.69;;;23.48;52.08
50702;BME280;36670;50.094;8.496;2023-09-19T08:16:30;100165.09;;;22.97;52.23
50702;BME280;36670;50.094;8.496;2023-09-19T08:18:56;100161.31;;;23.23;51.71
50702;BME280;36670;50.094;8.496;2023-09-19T08:21:22;100161.25;;;23.01;51.77
50702;BME280;36670;50.094;8.496;2023-09-19T08:23:49;100164.03;;;22.80;52.08
50702;BME280;36670;50.094;8.496;2023-09-19T08:26:14;100166.91;;;23.31;50.98
50702;BME280;36670;50.094;8.496;2023-09-19T08:28:39;100172.41;;;22.98;51.89
50702;BME280;36670;50.094;8.496;2023-09-19T08:31:07;100172.72;;;23.26;50.76
50702;BME280;36670;50.094;8.496;2023-09-19T08:33:34;100168.53;;;23.32;50.79
50702;BME280;36670;50.094;8.496;2023-09-19T08:36:00;100176.72;;;23.46;50.78
50702;BME280;36670;50.094;8.496;2023-09-19T08:38:25;100175.69;;;23.72;50.15
50702;BME280;36670;50.094;8.496;2023-09-19T08:40:57;100176.75;;;23.89;48.80
50702;BME280;36670;50.094;8.496;2023-09-19T08:43:23;100180.44;;;24.01;49.35
50702;BME280;36670;50.094;8.496;2023-09-19T08:45:49;100177.72;;;23.72;48.37
50702;BME280;36670;50.094;8.496;2023-09-19T08:48:26;100175.13;;;23.37;47.59
50702;BME280;36670;50.094;8.496;2023-09-19T08:51:02;100181.94;;;23.06;48.39
50702;BME280;36670;50.094;8.496;2023-09-19T08:53:42;100173.47;;;23.14;47.42
50702;BME280;36670;50.094;8.496;2023-09-19T08:56:09;100185.50;;;23.24;48.30
50702;BME280;36670;50.094;8.496;2023-09-19T08:58:44;100176.88;;;23.50;48.09
50702;BME280;36670;50.094;8.496;2023-09-19T09:01:09;100186.00;;;23.68;47.11
50702;BME280;36670;50.094;8.496;2023-09-19T09:03:37;100182.56;;;23.83;47.22
50702;BME280;36670;50.094;8.496;2023-09-19T09:06:07;100185.94;;;23.77;46.03
50702;BME280;36670;50.094;8.496;2023-09-19T09:08:36;100181.75;;;23.83;47.01
50702;BME280;36670;50.094;8.496;2023-09-19T09:11:01;100193.66;;;23.89;46.19
50702;BME280;36670;50.094;8.496;2023-09-19T09:13:27;100190.59;;;23.73;46.13
50702;BME280;36670;50.094;8.496;2023-09-19T09:15:53;100188.28;;;23.75;46.37
50702;BME280;36670;50.094;8.496;2023-09-19T09:18:19;100184.56;;;23.62;46.01
50702;BME280;36670;50.094;8.496;2023-09-19T09:20:45;100176.47;;;23.81;46.16
50702;BME280;36670;50.094;8.496;2023-09-19T09:23:12;100183.06;;;23.85;45.94
50702;BME280;36670;50.094;8.496;2023-09-19T09:25:52;100168.91;;;24.40;44.07
50702;BME280;36670;50.094;8.496;2023-09-19T09:28:26;100175.69;;;23.93;45.45
50702;BME280;36670;50.094;8.496;2023-09-19T09:30:53;100172.88;;;23.93;44.19
50702;BME280;36670;50.094;8.496;2023-09-19T09:33:19;100179.13;;;23.78;43.65
50702;BME280;36670;50.094;8.496;2023-09-19T09:38:21;100181.59;;;23.79;43.93
50702;BME280;36670;50.094;8.496;2023-09-19T09:40:50;100185.81;;;23.73;44.01
50702;BME280;36670;50.094;8.496;2023-09-19T09:43:34;100183.41;;;24.17;43.84
50702;BME280;36670;50.094;8.496;2023-09-19T09:46:14;100187.94;;;24.31;43.10
50702;BME280;36670;50.094;8.496;2023-09-19T09:48:56;100190.78;;;24.43;42.01
50702;BME280;36670;50.094;8.496;2023-09-19T09:51:41;100185.31;;;24.26;42.03
50702;BME280;36670;50.094;8.496;2023-09-19T09:54:23;100183.59;;;24.00;41.71
50702;BME280;36670;50.094;8.496;2023-09-19T09:56:58;100186.28;;;23.33;43.59
50702;BME280;36670;50.094;8.496;2023-09-19T09:59:44;100193.44;;;23.73;42.93
50702;BME280;36670;50.094;8.496;2023-09-19T10:02:12;100197.22;;;23.56;42.71
50702;BME280;36670;50.094;8.496;2023-09-19T10:04:39;100196.13;;;23.69;42.39
50702;BME280;36670;50.094;8.496;2023-09-19T10:07:27;100191.56;;;23.77;43.13
50702;BME280;36670;50.094;8.496;2023-09-19T10:10:04;100188.19;;;24.05;42.37
50702;BME280;36670;50.094;8.496;2023-09-19T10:12:42;100177.75;;;24.05;43.04
50702;BME280;36670;50.094;8.496;2023-09-19T10:15:10;100177.72;;;23.84;41.52
50702;BME280;36670;50.094;8.496;2023-09-19T10:17:36;100188.34;;;24.08;40.94
50702;BME280;36670;50.094;8.496;2023-09-19T10:20:03;100189.34;;;24.03;40.86
50702;BME280;36670;50.094;8.496;2023-09-19T10:22:43;100190.50;;;24.24;39.94
50702;BME280;36670;50.094;8.496;2023-09-19T10:25:23;100193.72;;;24.34;40.69
50702;BME280;36670;50.094;8.496;2023-09-19T10:27:50;100192.47;;;24.57;40.28
50702;BME280;36670;50.094;8.496;2023-09-19T10:30:16;100198.63;;;24.71;40.78
50702;BME280;36670;50.094;8.496;2023-09-19T10:32:42;100190.81;;;24.56;39.93
50702;BME280;36670;50.094;8.496;2023-09-19T10:35:08;100204.88;;;25.01;39.51
50702;BME280;36670;50.094;8.496;2023-09-19T10:37:37;100198.28;;;25.10;39.99
50702;BME280;36670;50.094;8.496;2023-09-19T10:40:03;100196.16;;;24.94;39.28
50702;BME280;36670;50.094;8.496;2023-09-19T10:42:37;100199.31;;;25.05;38.88
50702;BME280;36670;50.094;8.496;2023-09-19T10:45:03;100201.91;;;25.10;38.49
50702;BME280;36670;50.094;8.496;2023-09-19T10:47:33;100189.66;;;25.31;38.54
50702;BME280;36670;50.094;8.496;2023-09-19T10:49:58;100189.69;;;25.06;39.04
50702;BME280;36670;50.094;8.496;2023-09-19T10:52:25;100189.09;;;24.88;39.09
50702;BME280;36670;50.094;8.496;2023-09-19T10:54:53;100194.50;;;25.30;39.81
50702;BME280;36670;50.094;8.496;2023-09-19T10:57:23;100185.50;;;25.94;38.21
50702;BME280;36670;50.094;8.496;2023-09-19T11:00:07;100190.44;;;25.97;37.34
50702;BME280;36670;50.094;8.496;2023-09-19T11:05:35;100182.84;;;26.13;37.70
50702;BME280;36670;50.094;8.496;2023-09-19T11:08:06;100182.22;;;26.36;36.34
50702;BME280;36670;50.094;8.496;2023-09-19T11:10:51;100173.09;;;25.70;36.66
50702;BME280;36670;50.094;8.496;2023-09-19T11:13:29;100167.56;;;25.73;36.65
50702;BME280;36670;50.094;8.496;2023-09-19T11:26:44;100138.59;;;25.36;36.95
50702;BME280;36670;50.094;8.496;2023-09-19T11:29:25;100140.94;;;25.09;37.04
50702;BME280;36670;50.094;8.496;2023-09-19T11:31:51;100133.81;;;25.52;36.97
50702;BME280;36670;50.094;8.496;2023-09-19T11:34:39;100132.44;;;25.75;36.34
50702;BME280;36670;50.094;8.496;2023-09-19T11:40:07;100121.56;;;25.48;36.92
50702;BME280;36670;50.094;8.496;2023-09-19T11:42:49;100127.38;;;25.27;37.31
50702;BME280;36670;50.094;8.496;2023-09-19T11:48:12;100131.78;;;25.12;36.58
50702;BME280;36670;50.094;8.496;2023-09-19T11:50:42;100120.56;;;25.41;36.68
50702;BME280;36670;50.094;8.496;2023-09-19T11:53:10;100120.28;;;25.58;36.28
50702;BME280;36670;50.094;8.496;2023-09-19T11:55:40;100125.84;;;25.70;35.42
50702;BME280;36670;50.094;8.496;2023-09-19T11:58:08;100124.91;;;26.23;36.10
50702;BME280;36670;50.094;8.496;2023-09-19T12:00:35;100123.34;;;26.10;35.44
50702;BME280;36670;50.094;8.496;2023-09-19T12:03:08;100120.88;;;25.51;35.74
50702;BME280;36670;50.094;8.496;2023-09-19T12:05:34;100125.91;;;25.86;35.87
50702;BME280;36670;50.094;8.496;2023-09-19T12:08:00;100133.34;;;25.79;35.36
50702;BME280;36670;50.094;8.496;2023-09-19T12:10:26;100134.19;;;25.79;35.58
50702;BME280;36670;50.094;8.496;2023-09-19T12:12:52;100133.81;;;26.09;35.48
50702;BME280;36670;50.094;8.496;2023-09-19T12:15:25;100132.50;;;26.35;35.47
50702;BME280;36670;50.094;8.496;2023-09-19T12:17:59;100135.44;;;26.70;34.43
50702;BME280;36670;50.094;8.496;2023-09-19T12:20:24;100134.03;;;26.64;34.81
50702;BME280;36670;50.094;8.496;2023-09-19T12:22:49;100123.72;;;26.40;34.23
50702;BME280;36670;50.094;8.496;2023-09-19T12:25:15;100124.16;;;26.26;33.96
50702;BME280;36670;50.094;8.496;2023-09-19T12:27:46;100118.94;;;26.12;33.75
50702;BME280;36670;50.094;8.496;2023-09-19T12:30:18;100123.06;;;26.15;34.96
50702;BME280;36670;50.094;8.496;2023-09-19T12:32:44;100111.94;;;26.22;34.75
50702;BME280;36670;50.094;8.496;2023-09-19T12:35:33;100117.88;;;26.17;34.26
50702;BME280;36670;50.094;8.496;2023-09-19T12:38:01;100112.47;;;26.28;34.61
50702;BME280;36670;50.094;8.496;2023-09-19T12:40:28;100121.63;;;26.69;34.46
50702;BME280;36670;50.094;8.496;2023-09-19T12:42:59;100110.84;;;26.43;34.49
50702;BME280;36670;50.094;8.496;2023-09-19T12:45:25;100104.56;;;26.49;33.98
50702;BME280;36670;50.094;8.496;2023-09-19T12:48:22;100105.00;;;26.35;34.03
50702;BME280;36670;50.094;8.496;2023-09-19T12:51:03;100102.28;;;25.95;33.17
50702;BME280;36670;50.094;8.496;2023-09-19T12:53:32;100098.28;;;25.96;34.02
50702;BME280;36670;50.094;8.496;2023-09-19T12:55:59;100092.22;;;26.10;33.91
50702;BME280;36670;50.094;8.496;2023-09-19T12:58:24;100092.84;;;26.03;33.43
50702;BME280;36670;50.094;8.496;2023-09-19T13:00:50;100092.59;;;25.80;34.28
50702;BME280;36670;50.094;8.496;2023-09-19T13:03:19;100084.59;;;25.98;34.45
50702;BME280;36670;50.094;8.496;2023-09-19T13:05:53;100094.78;;;26.31;33.81
50702;BME280;36670;50.094;8.496;2023-09-19T13:08:25;100081.34;;;26.28;33.24
50702;BME280;36670;50.094;8.496;2023-09-19T13:11:07;100081.81;;;26.30;33.15
50702;BME280;36670;50.094;8.496;2023-09-19T13:13:39;100082.72;;;26.34;33.44
50702;BME280;36670;50.094;8.496;2023-09-19T13:16:06;100092.97;;;26.22;33.76
50702;BME280;36670;50.094;8.496;2023-09-19T13:18:47;100086.47;;;26.38;32.38
50702;BME280;36670;50.094;8.496;2023-09-19T13:21:17;100088.66;;;26.29;32.39
50702;BME280;36670;50.094;8.496;2023-09-19T13:23:53;100078.81;;;26.38;32.65
50702;BME280;36670;50.094;8.496;2023-09-19T13:26:21;100080.78;;;26.54;33.32
50702;BME280;36670;50.094;8.496;2023-09-19T13:28:47;100082.16;;;26.76;32.99
50702;BME280;36670;50.094;8.496;2023-09-19T13:31:14;100086.00;;;26.84;33.48
50702;BME280;36670;50.094;8.496;2023-09-19T13:33:43;100080.91;;;27.09;32.48
50702;BME280;36670;50.094;8.496;2023-09-19T13:36:10;100074.50;;;26.61;33.18
50702;BME280;36670;50.094;8.496;2023-09-19T13:38:36;100079.31;;;25.96;33.20